createdAt,value
2022-11-24T00:00:17.664Z,8.30
2022-11-24T00:02:45.118Z,6.20
2022-11-24T00:05:12.348Z,8.05
2022-11-24T00:07:39.496Z,7.68
2022-11-24T00:10:06.880Z,5.93
2022-11-24T00:12:34.067Z,8.18
2022-11-24T00:15:01.259Z,9.32
2022-11-24T00:17:29.401Z,7.63
2022-11-24T00:19:56.561Z,6.53
2022-11-24T00:22:23.708Z,7.53
2022-11-24T00:24:51.001Z,8.35
2022-11-24T00:27:18.219Z,7.10
2022-11-24T00:29:45.374Z,6.35
2022-11-24T00:32:12.517Z,6.80
2022-11-24T00:34:39.697Z,6.68
2022-11-24T00:37:06.850Z,6.80
2022-11-24T00:39:33.945Z,6.40
2022-11-24T00:42:01.088Z,6.47
2022-11-24T00:44:28.259Z,5.85
2022-11-24T00:46:55.516Z,6.93
2022-11-24T00:49:22.680Z,8.00
2022-11-24T00:51:49.838Z,5.85
2022-11-24T00:54:16.983Z,9.20
2022-11-24T00:56:44.129Z,7.88
2022-11-24T00:59:11.279Z,5.85
2022-11-24T01:01:39.031Z,8.45
2022-11-24T01:04:06.635Z,7.32
2022-11-24T01:06:35.679Z,5.72
2022-11-24T01:09:03.346Z,7.22
2022-11-24T01:11:54.251Z,10.77
2022-11-24T01:14:22.723Z,5.68
2022-11-24T01:16:49.868Z,6.10
2022-11-24T01:19:17.140Z,6.28
2022-11-24T01:21:44.262Z,6.30
2022-11-24T01:24:11.865Z,5.88
2022-11-24T01:26:39.068Z,6.78
2022-11-24T01:29:06.500Z,5.68
2022-11-24T01:31:33.703Z,5.32
2022-11-24T01:34:00.841Z,5.25
2022-11-24T01:36:27.974Z,8.00
2022-11-24T01:38:55.134Z,7.40
2022-11-24T01:41:23.729Z,5.43
2022-11-24T01:43:52.170Z,6.22
2022-11-24T01:46:25.259Z,6.85
2022-11-24T01:49:10.900Z,9.32
2022-11-24T01:51:40.872Z,6.95
2022-11-24T01:54:10.329Z,8.13
2022-11-24T01:56:39.654Z,6.88
2022-11-24T01:59:08.237Z,6.45
2022-11-24T02:01:35.545Z,5.80
2022-11-24T02:04:03.248Z,5.60
2022-11-24T02:06:32.518Z,7.47
2022-11-24T02:09:01.786Z,6.90
2022-11-24T02:11:30.258Z,8.48
2022-11-24T02:13:57.923Z,6.78
2022-11-24T02:16:25.123Z,7.70
2022-11-24T02:18:52.353Z,6.63
2022-11-24T02:21:19.664Z,6.93
2022-11-24T02:23:49.628Z,6.50
2022-11-24T02:26:22.212Z,7.82
2022-11-24T02:28:49.584Z,6.18
2022-11-24T02:31:16.806Z,7.82
2022-11-24T02:33:44.030Z,7.15
2022-11-24T02:36:11.347Z,9.50
2022-11-24T02:38:38.489Z,6.03
2022-11-24T02:41:11.079Z,7.50
2022-11-24T02:43:43.937Z,6.93
2022-11-24T02:46:11.316Z,6.03
2022-11-24T02:48:38.928Z,6.45
2022-11-24T02:51:06.298Z,7.30
2022-11-24T02:53:33.487Z,5.63
2022-11-24T02:56:00.620Z,7.68
2022-11-24T02:58:28.009Z,7.88
2022-11-24T03:00:57.204Z,6.18
2022-11-24T03:03:24.907Z,5.80
2022-11-24T03:05:52.157Z,5.35
2022-11-24T03:08:19.305Z,9.15
2022-11-24T03:10:47.954Z,6.90
2022-11-24T03:13:15.195Z,7.45
2022-11-24T03:15:42.466Z,10.00
2022-11-24T03:18:09.811Z,6.93
2022-11-24T03:20:36.964Z,6.10
2022-11-24T03:23:04.215Z,6.60
2022-11-24T03:25:31.485Z,8.07
2022-11-24T03:27:58.672Z,5.68
2022-11-24T03:30:25.842Z,7.00
2022-11-24T03:32:53.755Z,5.93
2022-11-24T03:35:21.444Z,7.07
2022-11-24T03:37:48.824Z,6.63
2022-11-24T03:40:16.209Z,5.93
2022-11-24T03:42:43.356Z,5.97
2022-11-24T03:45:44.293Z,6.63
2022-11-24T03:47:57.728Z,7.18
2022-11-24T03:50:24.944Z,5.93
2022-11-24T03:52:52.112Z,6.43
2022-11-24T03:55:19.275Z,6.65
2022-11-24T03:57:46.476Z,6.60
2022-11-24T04:00:13.809Z,6.88
2022-11-24T04:02:40.982Z,5.95
2022-11-24T04:05:08.647Z,6.97
2022-11-24T04:07:36.002Z,7.15
2022-11-24T04:10:03.272Z,6.30
2022-11-24T04:12:45.721Z,5.78
2022-11-24T04:15:17.453Z,8.20
2022-11-24T04:17:45.261Z,6.35
2022-11-24T04:20:13.195Z,6.00
2022-11-24T04:22:40.609Z,5.97
2022-11-24T04:25:08.530Z,6.15
2022-11-24T04:27:36.117Z,6.00
2022-11-24T04:30:03.650Z,6.60
2022-11-24T04:32:30.828Z,6.28
2022-11-24T04:34:58.099Z,6.28
2022-11-24T04:37:25.215Z,8.73
2022-11-24T04:39:52.523Z,6.00
2022-11-24T04:42:19.683Z,6.75
2022-11-24T04:44:47.104Z,6.70
2022-11-24T04:47:19.066Z,7.57
2022-11-24T04:49:47.527Z,6.53
2022-11-24T04:52:14.697Z,6.13
2022-11-24T04:54:41.958Z,6.72
2022-11-24T04:57:12.297Z,6.28
2022-11-24T04:59:39.534Z,7.07
2022-11-24T05:02:06.747Z,6.88
2022-11-24T05:04:34.347Z,7.32
2022-11-24T05:07:01.733Z,6.50
2022-11-24T05:09:41.958Z,5.78
2022-11-24T05:12:16.063Z,6.78
2022-11-24T05:14:43.261Z,6.07
2022-11-24T05:17:10.418Z,7.18
2022-11-24T05:19:37.583Z,7.40
2022-11-24T05:22:04.706Z,6.07
2022-11-24T05:24:32.279Z,6.65
2022-11-24T05:26:59.720Z,6.45
2022-11-24T05:29:26.855Z,6.35
2022-11-24T05:31:54.014Z,5.95
2022-11-24T05:34:21.593Z,6.18
2022-11-24T05:36:54.830Z,6.15
2022-11-24T05:39:22.029Z,7.45
2022-11-24T05:41:49.129Z,5.57
2022-11-24T05:44:16.243Z,5.63
2022-11-24T05:46:43.516Z,5.63
2022-11-24T05:49:10.757Z,6.40
2022-11-24T05:51:37.962Z,5.72
2022-11-24T05:54:05.126Z,5.32
2022-11-24T05:56:32.334Z,7.00
2022-11-24T05:58:59.478Z,6.05
2022-11-24T06:01:26.635Z,5.45
2022-11-24T06:03:53.912Z,9.30
2022-11-24T06:06:21.118Z,9.15
2022-11-24T06:08:48.274Z,6.25
2022-11-24T06:11:18.602Z,11.55
2022-11-24T06:13:46.530Z,8.50
2022-11-24T06:16:14.273Z,7.63
2022-11-24T06:18:41.809Z,10.32
2022-11-24T06:21:11.611Z,13.40
2022-11-24T06:23:39.334Z,8.65
2022-11-24T06:26:07.082Z,7.55
2022-11-24T06:28:34.257Z,8.43
2022-11-24T06:31:02.540Z,9.80
2022-11-24T06:33:33.724Z,9.77
2022-11-24T06:36:02.158Z,11.60
2022-11-24T06:38:29.459Z,10.32
2022-11-24T06:41:03.562Z,19.75
2022-11-24T06:43:34.335Z,15.10
2022-11-24T06:46:01.621Z,13.93
2022-11-24T06:48:28.973Z,10.55
2022-11-24T06:50:59.780Z,10.10
2022-11-24T06:53:27.103Z,11.15
2022-11-24T06:55:54.332Z,12.18
2022-11-24T06:58:21.444Z,17.85
2022-11-24T07:00:48.626Z,10.75
2022-11-24T07:03:16.950Z,10.65
2022-11-24T07:05:44.306Z,16.60
2022-11-24T07:08:17.393Z,12.20
2022-11-24T07:10:45.488Z,13.35
2022-11-24T07:13:12.716Z,12.20
2022-11-24T07:15:39.872Z,16.65
2022-11-24T07:18:07.088Z,18.70
2022-11-24T07:20:34.201Z,16.35
2022-11-24T07:23:01.309Z,15.02
2022-11-24T07:25:28.505Z,16.92
2022-11-24T07:27:59.326Z,14.45
2022-11-24T07:30:27.377Z,23.65
2022-11-24T07:33:01.155Z,14.77
2022-11-24T07:35:28.872Z,15.95
2022-11-24T07:37:56.853Z,16.17
2022-11-24T07:40:24.716Z,12.98
2022-11-24T07:42:51.969Z,14.60
2022-11-24T07:45:19.064Z,18.33
2022-11-24T07:47:46.375Z,16.52
2022-11-24T07:50:13.930Z,12.77
2022-11-24T07:52:41.225Z,20.52
2022-11-24T07:55:08.727Z,19.30
2022-11-24T07:57:35.956Z,17.63
2022-11-24T08:00:04.204Z,18.77
2022-11-24T08:02:31.322Z,17.73
2022-11-24T08:04:58.566Z,16.55
2022-11-24T08:07:25.811Z,16.33
2022-11-24T08:09:53.054Z,16.60
2022-11-24T08:12:23.538Z,23.80
2022-11-24T08:14:51.118Z,20.00
2022-11-24T08:17:18.713Z,19.23
2022-11-24T08:19:45.849Z,26.50
2022-11-24T08:22:13.019Z,20.67
2022-11-24T08:24:46.195Z,21.17
2022-11-24T08:27:13.874Z,20.92
2022-11-24T08:29:41.129Z,20.55
2022-11-24T08:32:09.264Z,17.40
2022-11-24T08:34:36.614Z,17.60
2022-11-24T08:37:04.862Z,18.27
2022-11-24T08:39:32.186Z,21.20
2022-11-24T08:41:59.417Z,17.17
2022-11-24T08:44:28.629Z,21.27
2022-11-24T08:46:55.970Z,18.55
2022-11-24T08:49:23.312Z,18.25
2022-11-24T08:51:51.278Z,20.15
2022-11-24T08:54:18.908Z,15.82
2022-11-24T08:56:47.024Z,17.55
2022-11-24T08:59:14.466Z,56.13
2022-11-24T09:01:42.038Z,45.50
2022-11-24T09:04:09.343Z,27.83
2022-11-24T09:06:36.566Z,30.92
2022-11-24T09:09:04.079Z,30.25
2022-11-24T09:11:31.274Z,25.10
2022-11-24T09:13:58.457Z,31.55
2022-11-24T09:16:27.049Z,26.27
2022-11-24T09:18:58.937Z,29.48
2022-11-24T09:21:26.093Z,29.00
2022-11-24T09:23:54.253Z,25.65
2022-11-24T09:26:29.164Z,27.15
2022-11-24T09:28:57.143Z,26.80
2022-11-24T09:31:25.594Z,26.65
2022-11-24T09:33:53.123Z,22.15
2022-11-24T09:36:20.728Z,25.40
2022-11-24T09:38:47.876Z,27.27
2022-11-24T09:41:36.627Z,26.50
2022-11-24T09:44:22.708Z,22.00
2022-11-24T09:46:50.332Z,27.98
2022-11-24T09:49:25.325Z,23.48
2022-11-24T09:51:53.622Z,25.43
2022-11-24T09:54:22.483Z,19.63
2022-11-24T09:56:51.212Z,26.70
2022-11-24T09:59:25.187Z,20.15
2022-11-24T10:01:53.136Z,23.45
2022-11-24T10:04:21.725Z,24.95
2022-11-24T10:06:48.872Z,26.20
2022-11-24T10:09:19.000Z,21.85
2022-11-24T10:11:58.641Z,20.42
2022-11-24T10:14:44.433Z,20.90
2022-11-24T10:17:37.393Z,19.85
2022-11-24T10:20:09.544Z,19.35
2022-11-24T10:22:52.373Z,20.60
2022-11-24T10:25:21.871Z,20.25
2022-11-24T10:27:51.102Z,18.75
2022-11-24T10:30:20.402Z,20.30
2022-11-24T10:32:49.187Z,25.60
2022-11-24T10:35:18.112Z,21.25
2022-11-24T10:37:52.549Z,19.70
2022-11-24T10:40:55.496Z,21.27
2022-11-24T10:43:12.788Z,20.70
2022-11-24T10:45:40.446Z,21.30
2022-11-24T10:48:09.700Z,19.58
2022-11-24T10:50:39.347Z,20.77
2022-11-24T10:53:09.351Z,20.65
2022-11-24T10:55:55.645Z,21.15
2022-11-24T11:00:50.159Z,28.80
2022-11-24T11:03:19.712Z,24.50
2022-11-24T11:05:52.010Z,19.02
2022-11-24T11:08:21.108Z,22.08
2022-11-24T11:10:49.858Z,22.15
2022-11-24T11:13:24.405Z,20.48
2022-11-24T11:15:51.875Z,22.08
2022-11-24T11:18:20.034Z,21.48
2022-11-24T11:20:51.829Z,22.75
2022-11-24T11:23:37.197Z,25.92
2022-11-24T11:26:28.324Z,28.17
2022-11-24T11:31:15.672Z,27.33
2022-11-24T11:34:46.025Z,22.50
2022-11-24T11:37:17.134Z,25.75
2022-11-24T11:39:49.013Z,25.67
2022-11-24T11:42:53.788Z,26.08
2022-11-24T11:45:20.960Z,26.52
2022-11-24T11:48:03.369Z,29.60
2022-11-24T11:50:47.490Z,32.13
2022-11-24T11:53:45.697Z,29.60
2022-11-24T11:56:20.133Z,26.75
2022-11-24T11:58:47.615Z,22.10
2022-11-24T12:01:27.206Z,24.90
2022-11-24T12:04:00.971Z,22.13
2022-11-24T12:06:28.254Z,22.58
2022-11-24T12:09:19.397Z,24.77
2022-11-24T12:12:01.294Z,23.70
2022-11-24T12:14:31.502Z,27.13
2022-11-24T12:16:58.585Z,22.90
2022-11-24T12:19:52.060Z,23.80
2022-11-24T12:22:33.768Z,25.42
2022-11-24T12:25:15.129Z,24.17
2022-11-24T12:27:48.541Z,23.55
2022-11-24T12:30:17.578Z,23.98
2022-11-24T12:33:03.224Z,22.65
2022-11-24T12:35:34.922Z,23.55
2022-11-24T12:38:08.121Z,25.77
2022-11-24T12:40:46.688Z,20.67
2022-11-24T12:43:20.047Z,20.20
2022-11-24T12:45:53.290Z,21.23
2022-11-24T12:48:29.423Z,19.65
2022-11-24T12:50:57.700Z,17.98
2022-11-24T12:53:24.826Z,18.45
2022-11-24T12:55:52.175Z,16.65
2022-11-24T12:58:38.187Z,18.50
2022-11-24T13:01:23.765Z,19.10
2022-11-24T13:03:53.780Z,19.10
2022-11-24T13:06:29.238Z,20.30
2022-11-24T13:08:56.994Z,18.23
2022-11-24T13:11:24.277Z,18.90
2022-11-24T13:14:01.529Z,20.70
2022-11-24T13:16:36.083Z,19.02
2022-11-24T13:19:15.858Z,20.52
2022-11-24T13:21:45.394Z,17.60
2022-11-24T13:24:19.485Z,18.83
2022-11-24T13:27:16.473Z,20.13
2022-11-24T13:29:44.451Z,18.48
2022-11-24T13:32:14.777Z,22.50
2022-11-24T13:34:49.803Z,18.27
2022-11-24T13:37:32.076Z,18.05
2022-11-24T13:40:17.065Z,18.00
2022-11-24T13:42:56.492Z,17.88
2022-11-24T13:45:42.488Z,16.15
2022-11-24T13:48:22.491Z,18.80
2022-11-24T13:51:01.690Z,15.40
2022-11-24T13:53:41.149Z,15.55
2022-11-24T13:56:14.409Z,14.80
2022-11-24T13:58:45.858Z,15.18
2022-11-24T14:01:29.667Z,15.50
2022-11-24T14:07:07.291Z,15.18
2022-11-24T14:09:35.255Z,16.02
2022-11-24T14:12:19.266Z,15.77
2022-11-24T14:14:50.622Z,19.05
2022-11-24T14:17:19.865Z,15.50
2022-11-24T14:19:48.304Z,16.63
2022-11-24T14:22:21.397Z,18.65
2022-11-24T14:24:56.318Z,19.35
2022-11-24T14:27:40.115Z,21.30
2022-11-24T14:30:13.636Z,22.17
2022-11-24T14:32:42.189Z,20.00
2022-11-24T14:35:29.622Z,20.88
2022-11-24T14:37:57.235Z,22.38
2022-11-24T14:40:39.744Z,22.23
2022-11-24T14:43:07.473Z,27.05
2022-11-24T14:45:35.207Z,18.58
2022-11-24T14:48:02.376Z,21.70
2022-11-24T14:50:29.671Z,16.58
2022-11-24T14:52:57.623Z,19.90
2022-11-24T14:55:24.787Z,18.08
2022-11-24T14:57:52.104Z,19.58
2022-11-24T15:00:21.335Z,19.23
2022-11-24T15:02:55.451Z,28.33
2022-11-24T15:05:23.737Z,21.38
2022-11-24T15:07:52.591Z,28.30
2022-11-24T15:10:38.611Z,20.67
2022-11-24T15:13:07.886Z,30.00
2022-11-24T15:15:36.518Z,17.65
2022-11-24T15:18:04.721Z,24.88
2022-11-24T15:20:36.859Z,20.60
2022-11-24T15:23:23.052Z,25.13
2022-11-24T15:25:51.060Z,24.98
2022-11-24T15:28:18.294Z,20.40
2022-11-24T15:30:45.423Z,21.67
2022-11-24T15:33:16.870Z,20.50
2022-11-24T15:35:44.104Z,25.30
2022-11-24T15:38:11.355Z,20.98
2022-11-24T15:40:39.016Z,17.80
2022-11-24T15:43:32.543Z,22.60
2022-11-24T15:46:00.513Z,19.77
2022-11-24T15:48:27.784Z,22.75
2022-11-24T15:50:55.558Z,22.10
2022-11-24T15:53:24.500Z,25.15
2022-11-24T15:55:52.017Z,21.10
2022-11-24T15:58:19.195Z,22.58
2022-11-24T16:00:46.368Z,19.67
2022-11-24T16:03:45.288Z,20.23
2022-11-24T16:06:00.846Z,16.92
2022-11-24T16:08:28.037Z,16.23
2022-11-24T16:10:55.925Z,17.42
2022-11-24T16:13:23.281Z,19.90
2022-11-24T16:15:50.458Z,22.50
2022-11-24T16:18:17.701Z,14.35
2022-11-24T16:20:44.861Z,15.85
2022-11-24T16:23:11.962Z,16.33
2022-11-24T16:25:39.184Z,18.85
2022-11-24T16:28:06.445Z,14.40
2022-11-24T16:30:33.703Z,14.93
2022-11-24T16:33:03.788Z,18.67
2022-11-24T16:35:30.952Z,16.83
2022-11-24T16:37:58.131Z,17.98
2022-11-24T16:40:25.422Z,18.98
2022-11-24T16:42:53.127Z,18.27
2022-11-24T16:45:20.255Z,20.17
2022-11-24T16:47:47.423Z,20.23
2022-11-24T16:50:14.648Z,16.45
2022-11-24T16:52:41.867Z,19.63
2022-11-24T16:55:09.773Z,14.52
2022-11-24T16:57:37.267Z,19.02
2022-11-24T17:00:05.546Z,15.48
2022-11-24T17:02:33.894Z,21.02
2022-11-24T17:05:01.167Z,15.73
2022-11-24T17:07:28.412Z,22.80
2022-11-24T17:09:55.919Z,16.77
2022-11-24T17:12:23.575Z,19.25
2022-11-24T17:15:16.438Z,20.27
2022-11-24T17:17:55.151Z,21.77
2022-11-24T17:20:25.325Z,16.40
2022-11-24T17:22:52.455Z,23.77
2022-11-24T17:25:19.574Z,17.45
2022-11-24T17:27:46.717Z,20.52
2022-11-24T17:30:14.186Z,21.13
2022-11-24T17:32:41.287Z,28.35
2022-11-24T17:35:08.650Z,21.90
2022-11-24T17:37:37.027Z,18.30
2022-11-24T17:40:27.398Z,27.67
2022-11-24T17:42:51.712Z,17.67
2022-11-24T17:45:18.879Z,38.60
2022-11-24T17:47:46.052Z,19.63
2022-11-24T17:50:13.294Z,28.48
2022-11-24T17:52:40.444Z,20.15
2022-11-24T17:55:07.652Z,17.40
2022-11-24T17:57:34.787Z,21.98
2022-11-24T18:00:01.987Z,26.50
2022-11-24T18:02:29.193Z,16.33
2022-11-24T18:04:56.455Z,21.40
2022-11-24T18:07:23.708Z,16.58
2022-11-24T18:09:50.908Z,19.00
2022-11-24T18:12:18.160Z,21.67
2022-11-24T18:14:45.342Z,17.45
2022-11-24T18:17:12.498Z,27.60
2022-11-24T18:19:39.703Z,24.90
2022-11-24T18:22:06.887Z,24.45
2022-11-24T18:24:34.086Z,20.95
2022-11-24T18:27:01.271Z,33.72
2022-11-24T18:29:28.440Z,22.83
2022-11-24T18:31:55.694Z,23.33
2022-11-24T18:34:27.604Z,21.08
2022-11-24T18:36:54.716Z,23.65
2022-11-24T18:39:21.975Z,24.77
2022-11-24T18:41:49.136Z,27.40
2022-11-24T18:44:16.303Z,26.00
2022-11-24T18:46:43.415Z,22.98
2022-11-24T18:49:10.642Z,25.83
2022-11-24T18:51:37.836Z,23.83
2022-11-24T18:54:05.540Z,24.60
2022-11-24T18:56:32.811Z,17.65
2022-11-24T18:59:00.030Z,25.35
2022-11-24T19:01:28.705Z,22.58
2022-11-24T19:03:57.202Z,23.77
2022-11-24T19:06:31.848Z,19.13
2022-11-24T19:08:59.830Z,20.00
2022-11-24T19:11:34.102Z,15.60
2022-11-24T19:14:01.722Z,22.25
2022-11-24T19:16:28.995Z,23.27
2022-11-24T19:19:00.080Z,20.15
2022-11-24T19:21:27.958Z,19.55
2022-11-24T19:23:58.543Z,16.42
2022-11-24T19:26:28.599Z,18.35
2022-11-24T19:28:55.853Z,15.63
2022-11-24T19:31:23.095Z,12.95
2022-11-24T19:33:52.752Z,16.58
2022-11-24T19:36:20.816Z,13.27
2022-11-24T19:38:55.291Z,16.83
2022-11-24T19:41:23.601Z,15.65
2022-11-24T19:43:53.320Z,17.77
2022-11-24T19:46:20.814Z,15.23
2022-11-24T19:48:54.499Z,13.70
2022-11-24T19:51:22.703Z,18.48
2022-11-24T19:53:50.084Z,18.10
2022-11-24T19:56:18.825Z,17.33
2022-11-24T19:58:46.053Z,16.85
2022-11-24T20:01:14.751Z,11.65
2022-11-24T20:03:42.826Z,18.75
2022-11-24T20:06:11.237Z,17.05
2022-11-24T20:08:39.228Z,12.98
2022-11-24T20:11:07.448Z,13.23
2022-11-24T20:13:35.272Z,12.73
2022-11-24T20:16:05.381Z,16.17
2022-11-24T20:18:37.560Z,15.52
2022-11-24T20:21:11.482Z,11.13
2022-11-24T20:23:38.971Z,13.93
2022-11-24T20:26:09.676Z,13.35
2022-11-24T20:28:36.906Z,13.43
2022-11-24T20:31:05.043Z,19.35
2022-11-24T20:33:32.242Z,15.75
2022-11-24T20:36:03.814Z,13.98
2022-11-24T20:38:30.983Z,14.57
2022-11-24T20:41:09.225Z,17.58
2022-11-24T20:43:37.266Z,15.88
2022-11-24T20:46:06.303Z,14.65
2022-11-24T20:48:34.493Z,21.10
2022-11-24T20:51:27.771Z,16.95
2022-11-24T20:53:56.630Z,15.15
2022-11-24T20:56:24.774Z,12.18
2022-11-24T20:58:52.259Z,21.95
2022-11-24T21:01:21.399Z,12.57
2022-11-24T21:03:52.393Z,15.07
2022-11-24T21:06:19.526Z,14.68
2022-11-24T21:08:46.699Z,14.50
2022-11-24T21:11:15.155Z,16.50
2022-11-24T21:13:43.868Z,20.73
2022-11-24T21:16:24.985Z,21.60
2022-11-24T21:18:53.858Z,18.05
2022-11-24T21:21:21.915Z,14.75
2022-11-24T21:23:49.658Z,21.77
2022-11-24T21:26:18.117Z,16.55
2022-11-24T21:28:46.291Z,16.80
2022-11-24T21:31:17.821Z,17.10
2022-11-24T21:33:46.223Z,19.25
2022-11-24T21:36:14.645Z,15.20
2022-11-24T21:38:42.710Z,19.58
2022-11-24T21:41:10.996Z,18.98
2022-11-24T21:43:38.653Z,13.23
2022-11-24T21:46:07.253Z,16.48
2022-11-24T21:48:35.589Z,15.40
2022-11-24T21:51:03.754Z,19.23
2022-11-24T21:53:31.938Z,16.33
2022-11-24T21:56:01.003Z,20.02
2022-11-24T21:58:28.797Z,17.08
2022-11-24T22:00:57.050Z,22.85
2022-11-24T22:03:24.344Z,20.20
2022-11-24T22:05:57.850Z,21.15
2022-11-24T22:08:25.599Z,16.95
2022-11-24T22:10:53.133Z,17.65
2022-11-24T22:13:21.075Z,18.50
2022-11-24T22:15:48.198Z,17.42
2022-11-24T22:18:15.317Z,20.42
2022-11-24T22:20:42.444Z,19.10
2022-11-24T22:23:10.226Z,26.45
2022-11-24T22:25:37.460Z,18.08
2022-11-24T22:28:04.613Z,15.80
2022-11-24T22:30:31.825Z,16.58
2022-11-24T22:32:59.004Z,17.02
2022-11-24T22:35:26.126Z,16.83
2022-11-24T22:37:53.252Z,19.83
2022-11-24T22:40:20.368Z,20.10
2022-11-24T22:42:47.575Z,23.05
2022-11-24T22:45:14.726Z,18.17
2022-11-24T22:47:41.829Z,17.23
2022-11-24T22:50:09.231Z,20.00
2022-11-24T22:52:37.441Z,19.67
2022-11-24T22:55:04.697Z,15.38
2022-11-24T22:57:31.856Z,15.73
2022-11-24T22:59:58.997Z,16.15
2022-11-24T23:02:26.146Z,19.10
2022-11-24T23:04:54.861Z,17.65
2022-11-24T23:07:22.098Z,15.90
2022-11-24T23:09:49.310Z,18.65
2022-11-24T23:12:16.550Z,17.30
2022-11-24T23:14:43.663Z,13.80
2022-11-24T23:17:10.873Z,14.65
2022-11-24T23:19:38.224Z,16.88
2022-11-24T23:22:05.401Z,21.52
2022-11-24T23:24:33.168Z,16.88
2022-11-24T23:27:00.594Z,17.65
2022-11-24T23:29:27.756Z,14.15
2022-11-24T23:31:55.035Z,16.27
2022-11-24T23:34:22.292Z,16.38
2022-11-24T23:36:49.445Z,16.88
2022-11-24T23:39:16.564Z,15.23
2022-11-24T23:41:43.759Z,13.63
2022-11-24T23:44:10.867Z,13.68
2022-11-24T23:46:38.034Z,10.20
2022-11-24T23:49:05.205Z,14.55
2022-11-24T23:51:33.147Z,14.70
2022-11-24T23:54:00.724Z,14.32
2022-11-24T23:56:31.519Z,13.85
2022-11-24T23:58:59.181Z,17.13
